Time;durP1;ratioP1;P1;durP2;ratioP2;P2;SDS_P1;SDS_P2;PMS_P1;PMS_P2;Temp;Humidity;BMP_temperature;BMP_pressure;BME280_temperature;BME280_humidity;BME280_pressure;Samples;Min_cycle;Max_cycle;Signal;HPM_P1;HPM_P2
2023/04/15 00:02:01;;;;;;;4.75;3.67;;;9.30;87.10;;;;;;5066661;28;20066;-59
2023/04/15 00:04:27;;;;;;;4.38;3.42;;;9.30;87.30;;;;;;5062204;28;20033;-58
2023/04/15 00:06:53;;;;;;;4.95;3.95;;;9.30;87.30;;;;;;5065536;28;20031;-60
2023/04/15 00:09:20;;;;;;;4.03;3.42;;;9.30;87.40;;;;;;5064141;28;20082;-58
2023/04/15 00:11:45;;;;;;;4.00;3.60;;;9.20;87.70;;;;;;5064077;28;20028;-60
2023/04/15 00:14:12;;;;;;;4.20;3.33;;;9.30;87.70;;;;;;5061954;28;20534;-58
2023/04/15 00:16:38;;;;;;;4.50;3.70;;;9.20;87.80;;;;;;5065152;28;20066;-58
2023/04/15 00:19:03;;;;;;;4.70;3.60;;;9.20;87.70;;;;;;5067357;28;20032;-58
2023/04/15 00:21:29;;;;;;;4.43;3.72;;;9.20;87.60;;;;;;5062470;28;20490;-59
2023/04/15 00:23:55;;;;;;;4.60;3.42;;;9.20;87.60;;;;;;5062721;28;20517;-58
2023/04/15 00:26:21;;;;;;;4.55;3.78;;;9.20;87.80;;;;;;5064383;28;20411;-61
2023/04/15 00:28:46;;;;;;;4.93;3.85;;;9.20;88.00;;;;;;5063257;28;20028;-59
2023/04/15 00:31:13;;;;;;;4.18;3.30;;;9.20;87.90;;;;;;5063297;28;20068;-59
2023/04/15 00:33:38;;;;;;;3.97;3.53;;;9.20;87.90;;;;;;5062901;28;20410;-58
2023/04/15 00:36:05;;;;;;;5.13;3.72;;;9.20;88.00;;;;;;5059070;28;20082;-58
2023/04/15 00:38:31;;;;;;;4.13;3.45;;;9.20;88.10;;;;;;5068994;28;20032;-59
2023/04/15 00:40:57;;;;;;;3.90;3.35;;;9.20;88.10;;;;;;5067102;28;20535;-61
2023/04/15 00:43:23;;;;;;;4.70;3.30;;;9.20;88.30;;;;;;5065012;28;20033;-58
2023/04/15 00:45:52;;;;;;;4.18;3.60;;;9.20;88.10;;;;;;5066189;28;20043;-60
2023/04/15 00:48:19;;;;;;;4.53;3.65;;;9.20;87.90;;;;;;5063433;28;20094;-61
2023/04/15 00:50:44;;;;;;;5.03;3.28;;;9.20;87.90;;;;;;5067677;28;20032;-61
2023/04/15 00:53:11;;;;;;;3.53;3.20;;;9.20;88.00;;;;;;5064714;28;20495;-60
2023/04/15 00:55:36;;;;;;;4.72;3.95;;;9.10;88.00;;;;;;5064800;28;20044;-60
2023/04/15 00:58:02;;;;;;;4.25;3.40;;;9.10;87.90;;;;;;5066638;28;20021;-58
2023/04/15 01:00:29;;;;;;;4.25;2.95;;;9.10;87.80;;;;;;5062551;28;20038;-59
2023/04/15 01:02:55;;;;;;;3.33;2.97;;;9.10;88.00;;;;;;5061105;28;20390;-59
2023/04/15 01:05:20;;;;;;;3.28;2.97;;;9.10;88.10;;;;;;5065651;28;20116;-59
2023/04/15 01:07:47;;;;;;;2.95;2.65;;;9.10;88.00;;;;;;5063732;28;20044;-59
2023/04/15 01:10:13;;;;;;;3.00;2.70;;;9.10;87.80;;;;;;5067186;28;20032;-59
2023/04/15 01:12:39;;;;;;;2.95;2.58;;;9.10;87.60;;;;;;5066635;28;20395;-59
2023/04/15 01:15:05;;;;;;;2.50;2.30;;;9.10;87.60;;;;;;5065218;28;20028;-60
2023/04/15 01:17:31;;;;;;;2.38;2.17;;;9.10;87.20;;;;;;5066616;28;20047;-59
2023/04/15 01:19:57;;;;;;;2.30;2.10;;;9.10;86.90;;;;;;5062217;28;20025;-59
2023/04/15 01:22:25;;;;;;;2.60;2.40;;;9.00;86.40;;;;;;5058895;28;20078;-59
2023/04/15 01:25:16;;;;;;;2.30;2.10;;;9.00;86.60;;;;;;5069194;28;20025;-59
2023/04/15 01:27:42;;;;;;;2.63;2.42;;;9.00;85.90;;;;;;5061301;28;20087;-59
2023/04/15 01:30:09;;;;;;;2.92;2.53;;;8.90;86.00;;;;;;5060953;28;20040;-59
2023/04/15 01:32:35;;;;;;;2.55;2.35;;;8.90;85.90;;;;;;5064190;28;20033;-59
2023/04/15 01:35:01;;;;;;;2.60;2.13;;;8.80;86.50;;;;;;5064845;28;20067;-59
2023/04/15 01:37:28;;;;;;;2.78;2.53;;;8.80;86.90;;;;;;5066011;28;20846;-58
2023/04/15 01:39:54;;;;;;;3.40;2.58;;;8.80;87.00;;;;;;5062301;28;20013;-59
2023/04/15 01:42:20;;;;;;;3.30;2.80;;;8.90;86.90;;;;;;5068831;28;20383;-61
2023/04/15 01:44:46;;;;;;;4.35;2.60;;;8.80;86.50;;;;;;5068145;28;20028;-58
2023/04/15 01:47:13;;;;;;;2.40;2.20;;;8.80;86.50;;;;;;5062658;28;20040;-58
2023/04/15 01:49:38;;;;;;;3.00;2.70;;;8.80;86.60;;;;;;5065703;28;20025;-60
2023/04/15 01:52:04;;;;;;;2.83;2.55;;;8.80;86.50;;;;;;5064981;28;20436;-59
2023/04/15 01:54:30;;;;;;;4.50;2.70;;;8.80;86.60;;;;;;5062106;28;20028;-58
2023/04/15 01:56:55;;;;;;;3.08;2.50;;;8.80;86.60;;;;;;5065164;28;20162;-59
2023/04/15 01:59:22;;;;;;;2.97;2.67;;;8.80;86.60;;;;;;5061053;28;20556;-60
2023/04/15 02:01:48;;;;;;;3.20;2.65;;;8.80;86.40;;;;;;5057621;28;20376;-59
2023/04/15 02:04:16;;;;;;;2.65;2.30;;;8.80;86.30;;;;;;5058445;28;20025;-59
2023/04/15 02:06:42;;;;;;;2.60;2.40;;;8.80;86.40;;;;;;5066592;28;20105;-61
2023/04/15 02:09:09;;;;;;;3.30;2.50;;;8.70;86.10;;;;;;5063906;28;20032;-58
2023/04/15 02:11:36;;;;;;;2.42;2.22;;;8.70;85.80;;;;;;5062098;28;20024;-61
2023/04/15 02:14:04;;;;;;;2.97;2.65;;;8.70;85.70;;;;;;5060145;28;20107;-58
2023/04/15 02:16:31;;;;;;;2.80;2.60;;;8.70;85.90;;;;;;5066068;28;20504;-62
2023/04/15 02:18:56;;;;;;;2.60;2.40;;;8.60;85.90;;;;;;5066671;28;20039;-59
2023/04/15 02:21:22;;;;;;;2.42;2.22;;;8.60;85.80;;;;;;5063169;28;20025;-60
2023/04/15 02:23:48;;;;;;;3.50;2.78;;;8.60;85.90;;;;;;5061218;28;20043;-59
2023/04/15 02:26:14;;;;;;;2.42;2.25;;;8.60;86.20;;;;;;5064898;28;20121;-59
2023/04/15 02:28:39;;;;;;;2.58;2.38;;;8.60;85.90;;;;;;5062907;28;20094;-59
2023/04/15 02:31:06;;;;;;;2.97;2.67;;;8.50;85.30;;;;;;5053593;28;20029;-59
2023/04/15 02:33:32;;;;;;;2.85;2.53;;;8.50;85.30;;;;;;5064774;28;20074;-59
2023/04/15 02:35:58;;;;;;;3.05;2.60;;;8.50;85.20;;;;;;5058396;28;20433;-59
2023/04/15 02:38:24;;;;;;;2.60;2.40;;;8.50;85.50;;;;;;5059980;28;20028;-59
2023/04/15 02:40:50;;;;;;;2.40;2.20;;;8.50;85.40;;;;;;5055510;28;20059;-59
2023/04/15 02:43:16;;;;;;;2.50;2.30;;;8.50;85.00;;;;;;5061747;28;20029;-59
2023/04/15 02:45:42;;;;;;;2.88;2.50;;;8.50;85.30;;;;;;5060524;28;20028;-60
2023/04/15 02:48:08;;;;;;;2.55;2.35;;;8.40;85.30;;;;;;5071816;28;20090;-58
2023/04/15 02:50:34;;;;;;;3.80;2.80;;;8.50;85.40;;;;;;5062424;28;20020;-59
2023/04/15 02:53:01;;;;;;;2.60;2.40;;;8.50;85.30;;;;;;5065199;28;20035;-58
2023/04/15 02:55:27;;;;;;;3.05;2.63;;;8.40;85.40;;;;;;5066176;28;20489;-61
2023/04/15 02:57:52;;;;;;;3.35;2.75;;;8.40;85.80;;;;;;5061067;28;20028;-59
2023/04/15 03:00:19;;;;;;;2.55;2.35;;;8.40;85.50;;;;;;5060183;28;20028;-59
2023/04/15 03:02:45;;;;;;;2.70;2.50;;;8.40;85.40;;;;;;5061805;28;20033;-59
2023/04/15 03:05:12;;;;;;;3.08;2.60;;;8.40;85.60;;;;;;5066746;28;20514;-58
2023/04/15 03:07:39;;;;;;;2.95;2.30;;;8.40;85.80;;;;;;5062655;28;20082;-59
2023/04/15 03:10:06;;;;;;;3.53;2.50;;;8.40;85.80;;;;;;5067511;28;20060;-59
2023/04/15 03:12:32;;;;;;;2.88;2.63;;;8.40;85.90;;;;;;5064319;28;20037;-59
2023/04/15 03:14:59;;;;;;;2.67;2.47;;;8.30;85.80;;;;;;5062227;28;20029;-60
2023/04/15 03:17:24;;;;;;;2.58;2.28;;;8.40;86.20;;;;;;5066491;28;20032;-58
2023/04/15 03:19:50;;;;;;;2.95;2.20;;;8.40;86.50;;;;;;5076460;28;20051;-59
2023/04/15 03:22:16;;;;;;;2.40;2.20;;;8.40;86.30;;;;;;5054364;28;20094;-59
2023/04/15 03:24:41;;;;;;;2.72;2.53;;;8.40;85.90;;;;;;5070219;28;20063;-62
2023/04/15 03:27:07;;;;;;;2.88;2.50;;;8.40;86.20;;;;;;5069949;28;20060;-59
2023/04/15 03:29:33;;;;;;;3.08;2.53;;;8.40;86.20;;;;;;5066383;28;20056;-58
2023/04/15 03:31:58;;;;;;;2.53;2.33;;;8.40;86.10;;;;;;5066587;28;20028;-59
2023/04/15 03:34:24;;;;;;;2.55;2.35;;;8.30;86.00;;;;;;5070631;28;20480;-59
2023/04/15 03:36:50;;;;;;;2.70;2.50;;;8.30;86.30;;;;;;5069570;28;20035;-59
2023/04/15 03:39:16;;;;;;;2.70;2.50;;;8.30;86.40;;;;;;5070868;28;20025;-59
2023/04/15 03:41:41;;;;;;;3.38;2.85;;;8.30;86.70;;;;;;5070058;28;20024;-61
2023/04/15 03:44:07;;;;;;;3.85;3.00;;;8.30;86.90;;;;;;5070960;28;20594;-59
2023/04/15 03:46:32;;;;;;;3.53;2.80;;;8.30;86.60;;;;;;5075696;28;20360;-60
2023/04/15 03:48:58;;;;;;;3.58;2.50;;;8.30;86.40;;;;;;5066346;28;20459;-60
2023/04/15 03:51:25;;;;;;;3.75;3.10;;;8.30;86.10;;;;;;5070078;28;20874;-58
2023/04/15 03:53:50;;;;;;;3.90;3.08;;;8.30;86.00;;;;;;5070349;28;20078;-59
2023/04/15 03:56:16;;;;;;;3.58;3.20;;;8.30;85.80;;;;;;5067972;28;20451;-61
2023/04/15 03:58:41;;;;;;;3.50;3.00;;;8.30;85.30;;;;;;5066982;28;20107;-61
2023/04/15 04:01:07;;;;;;;3.60;3.30;;;8.30;85.30;;;;;;5069184;28;20040;-59
2023/04/15 04:03:33;;;;;;;4.28;3.38;;;8.30;85.10;;;;;;5068985;28;20028;-59
2023/04/15 04:05:59;;;;;;;4.75;3.67;;;8.30;85.50;;;;;;5071109;28;20589;-59
2023/04/15 04:08:26;;;;;;;4.60;3.53;;;8.30;85.50;;;;;;5073300;28;20032;-57
2023/04/15 04:10:51;;;;;;;4.22;3.50;;;8.30;85.40;;;;;;5069914;28;20043;-59
2023/04/15 04:13:17;;;;;;;4.22;3.80;;;8.30;85.60;;;;;;5061501;28;20028;-62
2023/04/15 04:15:42;;;;;;;4.13;3.50;;;8.30;86.00;;;;;;5070644;28;20074;-58
2023/04/15 04:18:08;;;;;;;3.72;3.28;;;8.20;86.20;;;;;;5069659;28;20032;-59
2023/04/15 04:20:34;;;;;;;4.97;3.75;;;8.30;86.30;;;;;;5078168;28;20055;-60
2023/04/15 04:23:00;;;;;;;3.72;3.20;;;8.20;86.00;;;;;;5073484;28;20460;-60
2023/04/15 04:25:26;;;;;;;4.28;3.35;;;8.30;85.80;;;;;;5069932;28;20453;-59
2023/04/15 04:27:51;;;;;;;3.08;2.78;;;8.30;85.50;;;;;;5070132;28;20135;-59
2023/04/15 04:30:17;;;;;;;3.00;2.72;;;8.20;85.80;;;;;;5072802;28;20154;-59
2023/04/15 04:32:43;;;;;;;3.58;2.83;;;8.30;86.10;;;;;;5073477;28;20017;-59
2023/04/15 04:35:09;;;;;;;4.10;2.70;;;8.30;86.20;;;;;;5074132;28;20024;-59
2023/04/15 04:37:34;;;;;;;3.55;2.83;;;8.30;86.10;;;;;;5066673;28;20029;-59
2023/04/15 04:40:00;;;;;;;3.10;2.50;;;8.30;86.00;;;;;;5072075;28;20384;-60
2023/04/15 04:42:26;;;;;;;4.00;2.97;;;8.30;86.00;;;;;;5074501;28;20047;-65
2023/04/15 04:44:51;;;;;;;3.10;2.50;;;8.30;85.60;;;;;;5073966;28;20037;-64
2023/04/15 04:47:17;;;;;;;3.83;2.53;;;8.30;85.30;;;;;;5072248;28;20041;-62
2023/04/15 04:49:43;;;;;;;3.22;2.70;;;8.30;84.80;;;;;;5074200;28;20021;-64
2023/04/15 04:52:08;;;;;;;3.08;2.80;;;8.30;84.80;;;;;;5071093;28;20456;-65
2023/04/15 04:54:34;;;;;;;2.75;2.50;;;8.20;84.60;;;;;;5073858;28;20460;-63
2023/04/15 04:57:00;;;;;;;3.20;2.90;;;8.20;84.50;;;;;;5070011;28;20041;-61
2023/04/15 04:59:26;;;;;;;2.67;2.47;;;8.20;84.40;;;;;;5073321;28;20032;-65
2023/04/15 05:01:52;;;;;;;3.40;2.80;;;8.20;84.30;;;;;;5059346;28;20044;-63
2023/04/15 05:04:17;;;;;;;3.75;3.28;;;8.20;83.90;;;;;;5081477;28;20039;-64
2023/04/15 05:06:43;;;;;;;4.45;3.47;;;8.20;83.80;;;;;;5062609;28;20554;-64
2023/04/15 05:09:08;;;;;;;5.97;3.65;;;8.20;83.60;;;;;;5072937;28;20021;-65
2023/04/15 05:11:34;;;;;;;5.50;3.63;;;8.20;83.50;;;;;;5071495;28;20056;-65
2023/04/15 05:14:01;;;;;;;9.23;3.47;;;8.20;83.40;;;;;;5062882;28;20144;-64
2023/04/15 05:16:26;;;;;;;3.75;3.22;;;8.20;83.40;;;;;;5059971;28;20024;-65
2023/04/15 05:18:52;;;;;;;4.30;3.78;;;8.10;83.30;;;;;;5071730;28;20108;-65
2023/04/15 05:21:19;;;;;;;4.55;3.80;;;8.10;83.50;;;;;;5070821;28;20123;-65
2023/04/15 05:23:44;;;;;;;5.00;3.97;;;8.20;84.10;;;;;;5066870;28;20028;-64
2023/04/15 05:26:10;;;;;;;6.38;4.10;;;8.10;84.10;;;;;;5065482;28;20059;-70
2023/04/15 05:28:36;;;;;;;4.45;3.70;;;8.20;84.00;;;;;;5065943;28;20060;-68
2023/04/15 05:31:02;;;;;;;4.78;4.00;;;8.20;83.80;;;;;;5072333;28;21226;-65
2023/04/15 05:33:28;;;;;;;3.85;3.45;;;8.10;83.90;;;;;;5059332;28;20032;-68
2023/04/15 05:35:54;;;;;;;5.28;3.97;;;8.20;84.40;;;;;;5075312;28;20032;-65
2023/04/15 05:38:20;;;;;;;5.75;4.00;;;8.10;84.80;;;;;;5061618;28;20037;-71
2023/04/15 05:40:45;;;;;;;5.53;3.85;;;8.10;84.50;;;;;;5062734;28;20098;-59
2023/04/15 05:43:11;;;;;;;4.03;3.63;;;8.10;84.70;;;;;;5069798;28;20407;-59
2023/04/15 05:45:37;;;;;;;5.32;4.13;;;8.10;84.70;;;;;;5060437;28;20032;-59
2023/04/15 05:48:03;;;;;;;4.45;3.88;;;8.10;84.60;;;;;;5064547;28;20039;-59
2023/04/15 05:50:28;;;;;;;5.45;4.63;;;8.10;85.00;;;;;;5052783;28;20035;-59
2023/04/15 05:52:54;;;;;;;4.32;3.92;;;8.10;85.10;;;;;;5060425;28;20080;-59
2023/04/15 05:55:21;;;;;;;4.95;4.40;;;8.00;85.50;;;;;;5055883;28;20021;-58
2023/04/15 05:57:46;;;;;;;5.85;4.72;;;8.00;85.80;;;;;;5055451;28;20102;-59
2023/04/15 06:00:13;;;;;;;4.85;4.32;;;8.00;86.30;;;;;;5061832;28;20029;-59
2023/04/15 06:02:39;;;;;;;6.25;4.65;;;8.00;86.00;;;;;;5055990;28;20028;-60
2023/04/15 06:05:08;;;;;;;4.90;4.40;;;7.90;86.30;;;;;;5053947;28;20028;-60
2023/04/15 06:07:35;;;;;;;4.93;4.22;;;7.90;86.70;;;;;;5063210;28;20157;-59
2023/04/15 06:10:02;;;;;;;5.55;4.53;;;7.90;87.00;;;;;;5054309;28;20032;-59
2023/04/15 06:12:28;;;;;;;6.28;4.90;;;8.00;87.20;;;;;;5057001;28;20032;-69
2023/04/15 06:14:53;;;;;;;6.05;5.07;;;8.00;86.90;;;;;;5071334;28;20451;-70
2023/04/15 06:17:19;;;;;;;6.20;5.15;;;8.00;86.80;;;;;;5041452;28;20044;-65
2023/04/15 06:19:45;;;;;;;6.43;5.10;;;7.90;86.90;;;;;;5047949;28;20044;-66
2023/04/15 06:22:10;;;;;;;5.55;4.72;;;7.90;87.20;;;;;;5062343;28;20074;-69
2023/04/15 06:24:36;;;;;;;5.40;4.50;;;7.90;87.20;;;;;;5063736;28;20028;-69
2023/04/15 06:27:02;;;;;;;5.22;4.28;;;7.90;87.30;;;;;;5050803;28;20463;-67
2023/04/15 06:29:28;;;;;;;6.47;4.97;;;7.90;87.00;;;;;;5064962;28;20032;-69
2023/04/15 06:31:55;;;;;;;5.90;5.00;;;7.90;87.20;;;;;;5054417;28;20055;-68
2023/04/15 06:34:21;;;;;;;6.57;5.22;;;7.90;87.40;;;;;;5068469;28;20135;-67
2023/04/15 06:36:49;;;;;;;6.47;5.32;;;7.80;87.60;;;;;;5047872;28;20041;-67
2023/04/15 06:39:15;;;;;;;6.90;4.70;;;7.80;87.80;;;;;;5052462;28;20032;-67
2023/04/15 06:41:40;;;;;;;5.82;4.85;;;7.80;88.10;;;;;;5058105;28;20502;-64
2023/04/15 06:44:06;;;;;;;5.57;4.43;;;7.80;87.80;;;;;;5065846;28;20081;-68
2023/04/15 06:46:31;;;;;;;6.82;5.25;;;7.80;87.80;;;;;;5067936;28;20411;-66
2023/04/15 06:48:57;;;;;;;4.85;3.97;;;7.80;87.40;;;;;;5064466;28;20036;-67
2023/04/15 06:51:23;;;;;;;6.30;4.15;;;7.80;87.30;;;;;;5059413;28;20467;-66
2023/04/15 06:53:49;;;;;;;7.32;4.78;;;7.80;87.00;;;;;;5053844;28;20054;-64
2023/04/15 06:56:14;;;;;;;5.70;4.43;;;7.70;87.20;;;;;;5039719;28;20047;-70
2023/04/15 06:58:40;;;;;;;5.30;4.10;;;7.70;87.50;;;;;;5041299;28;20029;-70
2023/04/15 07:01:06;;;;;;;4.90;3.90;;;7.80;87.80;;;;;;5067102;28;20028;-70
2023/04/15 07:03:31;;;;;;;5.05;3.95;;;7.80;87.60;;;;;;5064257;28;20078;-70
2023/04/15 07:05:57;;;;;;;4.07;3.67;;;7.80;87.30;;;;;;5059913;28;20128;-69
2023/04/15 07:08:24;;;;;;;5.78;4.60;;;7.80;87.00;;;;;;5062922;28;20033;-70
2023/04/15 07:10:50;;;;;;;5.68;4.57;;;7.80;87.20;;;;;;5051153;28;20032;-69
2023/04/15 07:13:16;;;;;;;6.38;4.47;;;7.80;87.60;;;;;;5060301;28;20685;-68
2023/04/15 07:15:41;;;;;;;5.28;4.40;;;7.80;87.50;;;;;;5054669;28;20067;-67
2023/04/15 07:18:08;;;;;;;5.05;4.55;;;7.80;87.50;;;;;;5058664;28;20043;-70
2023/04/15 07:20:34;;;;;;;7.22;5.35;;;7.80;87.70;;;;;;5060076;28;20036;-69
2023/04/15 07:22:59;;;;;;;6.13;5.05;;;7.80;87.60;;;;;;5062058;28;20028;-67
2023/04/15 07:25:25;;;;;;;6.50;4.75;;;7.80;87.50;;;;;;5054826;28;20075;-70
2023/04/15 07:27:52;;;;;;;5.38;4.60;;;7.80;88.00;;;;;;5058471;28;20142;-68
2023/04/15 07:30:17;;;;;;;7.65;4.97;;;7.80;87.90;;;;;;5060718;28;20119;-65
2023/04/15 07:32:43;;;;;;;5.78;4.82;;;7.80;87.80;;;;;;5051070;28;20693;-66
2023/04/15 07:35:09;;;;;;;6.45;5.43;;;7.80;87.80;;;;;;5032531;28;20035;-66
2023/04/15 07:37:35;;;;;;;6.32;5.00;;;7.80;87.90;;;;;;5052601;28;20582;-67
2023/04/15 07:40:03;;;;;;;6.95;5.35;;;7.80;88.00;;;;;;5056768;28;20024;-70
2023/04/15 07:42:29;;;;;;;5.22;4.38;;;7.80;88.30;;;;;;5062233;28;20029;-69
2023/04/15 07:44:55;;;;;;;7.15;5.60;;;7.80;87.80;;;;;;5061062;28;20464;-72
2023/04/15 07:47:21;;;;;;;7.13;5.35;;;7.80;87.70;;;;;;5050651;28;20033;-66
2023/04/15 07:49:46;;;;;;;6.80;5.28;;;7.70;87.70;;;;;;5045263;28;20037;-68
2023/04/15 07:52:12;;;;;;;6.93;5.68;;;7.70;87.90;;;;;;5058454;28;20869;-70
2023/04/15 07:54:38;;;;;;;6.43;5.10;;;7.70;88.10;;;;;;5061107;28;20115;-68
2023/04/15 07:57:04;;;;;;;5.57;4.95;;;7.70;88.40;;;;;;5051998;28;20031;-66
2023/04/15 07:59:32;;;;;;;6.55;5.47;;;7.70;88.60;;;;;;5035720;28;20124;-69
2023/04/15 08:01:58;;;;;;;7.00;5.43;;;7.70;88.70;;;;;;5053204;28;20024;-66
2023/04/15 08:04:24;;;;;;;6.93;5.07;;;7.70;88.70;;;;;;5054927;28;20094;-68
2023/04/15 08:06:49;;;;;;;6.40;5.20;;;7.70;89.00;;;;;;5069343;28;20199;-68
2023/04/15 08:09:15;;;;;;;5.72;4.93;;;7.70;89.10;;;;;;5071337;28;20539;-68
2023/04/15 08:11:41;;;;;;;5.53;4.72;;;7.70;89.10;;;;;;5057118;28;20032;-70
2023/04/15 08:14:07;;;;;;;7.25;5.63;;;7.70;89.10;;;;;;5052548;28;20029;-71
2023/04/15 08:16:32;;;;;;;5.97;5.10;;;7.70;89.40;;;;;;5070278;28;20036;-69
2023/04/15 08:18:58;;;;;;;6.22;5.18;;;7.70;89.30;;;;;;5056679;28;20112;-66
2023/04/15 08:21:24;;;;;;;6.68;5.65;;;7.70;89.10;;;;;;5064531;28;20041;-71
2023/04/15 08:23:51;;;;;;;6.10;5.50;;;7.70;89.10;;;;;;5076160;28;20020;-71
2023/04/15 08:26:18;;;;;;;6.00;5.40;;;7.70;89.30;;;;;;5065007;28;20091;-70
2023/04/15 08:28:44;;;;;;;7.57;6.03;;;7.70;89.40;;;;;;5074797;28;20032;-70
2023/04/15 08:31:15;;;;;;;7.47;6.10;;;7.70;89.90;;;;;;5071031;28;20032;-68
2023/04/15 08:33:41;;;;;;;7.20;6.13;;;7.70;89.30;;;;;;5069451;28;20441;-68
2023/04/15 08:36:07;;;;;;;8.07;6.22;;;7.70;89.40;;;;;;5073387;28;20040;-66
2023/04/15 08:38:33;;;;;;;8.25;6.60;;;7.70;90.20;;;;;;5066162;28;20081;-68
2023/04/15 08:41:02;;;;;;;7.97;6.50;;;7.70;90.00;;;;;;5070073;28;20064;-67
2023/04/15 08:43:37;;;;;;;7.68;5.97;;;7.60;90.00;;;;;;5075733;28;20044;-67
2023/04/15 08:46:04;;;;;;;7.85;5.65;;;7.60;90.10;;;;;;5064797;28;20036;-67
2023/04/15 08:48:34;;;;;;;6.97;5.80;;;7.60;90.20;;;;;;5061733;28;20107;-70
2023/04/15 08:51:00;;;;;;;7.35;5.95;;;7.60;90.20;;;;;;5045655;28;20061;-67
2023/04/15 08:53:28;;;;;;;7.72;5.50;;;7.70;90.20;;;;;;5067232;28;20063;-68
2023/04/15 08:55:56;;;;;;;6.47;5.25;;;7.60;90.10;;;;;;5071978;28;20081;-68
2023/04/15 08:58:24;;;;;;;6.60;4.95;;;7.60;90.20;;;;;;5055856;28;20813;-66
2023/04/15 09:00:49;;;;;;;6.70;5.53;;;7.60;90.30;;;;;;5070509;28;20032;-68
2023/04/15 09:03:16;;;;;;;6.93;5.43;;;7.70;90.30;;;;;;5066526;28;20052;-68
2023/04/15 09:05:42;;;;;;;6.90;4.72;;;7.70;90.30;;;;;;5060450;28;20029;-67
2023/04/15 09:08:08;;;;;;;5.95;4.60;;;7.70;90.40;;;;;;5063646;28;20469;-67
2023/04/15 09:10:33;;;;;;;5.82;4.53;;;7.70;90.20;;;;;;5068492;28;20078;-69
2023/04/15 09:13:00;;;;;;;7.20;5.60;;;7.70;90.20;;;;;;5064163;28;20033;-69
2023/04/15 09:15:28;;;;;;;7.55;5.97;;;7.70;90.20;;;;;;5065551;28;20025;-64
2023/04/15 09:17:54;;;;;;;6.38;5.68;;;7.70;90.20;;;;;;5070745;28;20028;-66
2023/04/15 09:20:20;;;;;;;6.68;5.55;;;7.70;90.20;;;;;;5066502;28;20028;-69
2023/04/15 09:22:48;;;;;;;9.02;6.05;;;7.70;90.10;;;;;;5072864;28;20029;-66
2023/04/15 09:25:14;;;;;;;8.85;5.80;;;7.70;90.00;;;;;;5070879;28;20039;-69
2023/04/15 09:27:54;;;;;;;6.82;5.40;;;7.70;90.20;;;;;;5070046;28;20201;-69
2023/04/15 09:30:20;;;;;;;6.75;5.68;;;7.70;90.20;;;;;;5055946;28;20032;-71
2023/04/15 09:32:59;;;;;;;6.80;4.85;;;7.80;90.70;;;;;;5074027;28;20062;-70
2023/04/15 09:35:29;;;;;;;5.88;4.72;;;7.80;90.20;;;;;;5067047;28;20042;-71
2023/04/15 09:38:06;;;;;;;6.47;5.32;;;7.80;90.20;;;;;;5064413;28;20029;-68
2023/04/15 09:40:41;;;;;;;6.18;5.07;;;7.80;90.20;;;;;;5065506;28;20056;-70
2023/04/15 09:43:08;;;;;;;6.80;4.85;;;7.80;90.20;;;;;;5080543;28;20032;-67
2023/04/15 09:45:35;;;;;;;7.32;5.20;;;7.80;90.20;;;;;;5076564;28;20032;-71
2023/04/15 09:48:21;;;;;;;6.28;4.75;;;7.80;90.20;;;;;;5069475;28;20390;-70
2023/04/15 09:50:48;;;;;;;6.13;5.22;;;7.80;90.20;;;;;;5060359;28;20031;-70
2023/04/15 09:53:19;;;;;;;7.20;5.07;;;7.80;90.20;;;;;;5081021;28;20028;-69
2023/04/15 09:55:48;;;;;;;5.32;4.55;;;7.80;90.10;;;;;;5076112;28;20029;-68
2023/04/15 09:58:18;;;;;;;6.22;4.75;;;7.80;90.10;;;;;;5066020;28;20025;-71
2023/04/15 10:00:47;;;;;;;6.55;5.10;;;7.90;90.00;;;;;;5068869;28;20387;-67
2023/04/15 10:03:24;;;;;;;5.70;4.15;;;7.90;90.00;;;;;;5064182;28;20082;-70
2023/04/15 10:05:53;;;;;;;5.13;4.40;;;7.80;89.70;;;;;;5063085;28;20025;-70
2023/04/15 10:08:26;;;;;;;5.47;4.50;;;7.90;90.00;;;;;;5077206;28;20036;-70
2023/04/15 10:10:53;;;;;;;5.68;4.60;;;7.90;90.00;;;;;;5060650;28;20044;-66
2023/04/15 10:13:23;;;;;;;5.85;4.75;;;7.90;89.80;;;;;;5071037;28;20074;-70
2023/04/15 10:16:13;;;;;;;7.40;4.93;;;7.90;89.70;;;;;;5070441;28;20032;-69
2023/04/15 10:18:44;;;;;;;7.03;4.95;;;8.00;89.60;;;;;;5059100;28;20273;-68
2023/04/15 10:21:12;;;;;;;5.88;4.85;;;8.00;89.30;;;;;;5064070;28;20117;-69
2023/04/15 10:23:38;;;;;;;5.88;4.75;;;7.90;89.20;;;;;;5067743;28;20033;-69
2023/04/15 10:26:05;;;;;;;6.43;4.75;;;8.00;90.00;;;;;;5065563;28;20032;-71
2023/04/15 10:28:31;;;;;;;7.53;5.30;;;8.00;89.40;;;;;;5068283;28;20078;-69
2023/04/15 10:30:58;;;;;;;5.40;4.65;;;8.00;89.00;;;;;;5068710;28;20051;-67
2023/04/15 10:33:25;;;;;;;6.22;4.65;;;8.00;89.00;;;;;;5071709;28;20032;-70
2023/04/15 10:35:54;;;;;;;6.40;4.90;;;8.00;88.90;;;;;;5072321;28;20047;-69
2023/04/15 10:38:44;;;;;;;5.75;4.35;;;8.00;89.30;;;;;;5067164;28;20484;-71
2023/04/15 10:41:14;;;;;;;6.07;4.70;;;8.00;89.50;;;;;;5062729;28;20041;-70
2023/04/15 10:43:54;;;;;;;6.88;4.70;;;8.00;89.10;;;;;;5067288;28;20037;-70
2023/04/15 10:46:36;;;;;;;5.63;4.88;;;8.00;89.30;;;;;;5068024;28;20033;-71
2023/04/15 10:49:11;;;;;;;;;;;8.00;89.00;;;;;;5063865;28;20131;-69
2023/04/15 10:51:45;;;;;;;5.28;4.50;;;8.00;88.50;;;;;;5062699;28;19913;-70
2023/04/15 10:54:29;;;;;;;6.00;4.57;;;8.00;88.80;;;;;;5067100;28;20035;-70
2023/04/15 10:57:01;;;;;;;5.75;4.70;;;8.00;88.70;;;;;;5061561;28;20055;-69
2023/04/15 10:59:31;;;;;;;5.35;4.22;;;8.10;88.70;;;;;;5074827;28;20070;-70
2023/04/15 11:02:00;;;;;;;7.25;4.85;;;8.10;88.60;;;;;;5071207;28;20662;-68
2023/04/15 11:04:52;;;;;;;6.72;4.57;;;8.10;88.50;;;;;;5064373;28;20028;-71
2023/04/15 11:07:38;;;;;;;5.40;4.57;;;8.10;88.30;;;;;;5055282;28;20089;-69
2023/04/15 11:10:25;;;;;;;7.65;4.60;;;8.10;88.30;;;;;;5065047;28;20370;-71
2023/04/15 11:12:53;;;;;;;6.20;4.90;;;8.10;88.70;;;;;;5059927;28;20052;-69
2023/04/15 11:15:39;;;;;;;5.50;4.43;;;8.10;88.60;;;;;;5062535;28;20031;-69
2023/04/15 11:18:16;;;;;;;6.53;4.60;;;8.20;88.50;;;;;;5063735;28;20035;-72
2023/04/15 11:20:47;;;;;;;6.82;4.55;;;8.20;88.90;;;;;;5065506;28;20025;-68
2023/04/15 11:23:18;;;;;;;6.00;4.53;;;8.20;88.30;;;;;;5071142;28;20139;-69
2023/04/15 11:25:44;;;;;;;6.57;4.50;;;8.20;88.10;;;;;;5062436;28;20035;-67
2023/04/15 11:28:11;;;;;;;6.80;4.57;;;8.20;88.20;;;;;;5064293;28;20178;-67
2023/04/15 11:30:38;;;;;;;5.47;4.57;;;8.20;88.20;;;;;;5066102;28;20104;-69
2023/04/15 11:33:07;;;;;;;5.78;4.72;;;8.20;88.40;;;;;;5032392;28;20054;-67
2023/04/15 11:35:33;;;;;;;4.95;4.40;;;8.20;88.50;;;;;;5052974;28;20413;-67
2023/04/15 11:38:07;;;;;;;6.82;4.55;;;8.30;88.90;;;;;;5069222;28;20032;-67
2023/04/15 11:40:34;;;;;;;5.93;4.53;;;8.30;88.90;;;;;;5062196;28;20133;-69
2023/04/15 11:43:20;;;;;;;6.05;5.13;;;8.30;88.40;;;;;;5068718;28;20133;-68
2023/04/15 11:45:50;;;;;;;6.25;4.97;;;8.30;88.10;;;;;;5068965;28;20106;-65
2023/04/15 11:48:16;;;;;;;5.88;4.50;;;8.30;88.30;;;;;;5064834;28;20107;-69
2023/04/15 11:50:42;;;;;;;6.57;4.45;;;8.30;88.20;;;;;;5071560;28;20801;-66
2023/04/15 11:53:12;;;;;;;5.53;4.47;;;8.30;88.40;;;;;;5067142;28;20124;-68
2023/04/15 11:55:45;;;;;;;5.53;4.20;;;8.30;88.30;;;;;;5054301;28;20036;-67
2023/04/15 11:58:19;;;;;;;5.60;4.03;;;8.40;88.20;;;;;;5051969;28;20028;-69
2023/04/15 12:00:59;;;;;;;5.15;4.03;;;8.40;87.80;;;;;;5071481;28;20033;-68
2023/04/15 12:03:27;;;;;;;5.38;4.35;;;8.40;87.90;;;;;;5065384;28;20397;-69
2023/04/15 12:06:10;;;;;;;4.75;4.25;;;8.40;88.20;;;;;;5068324;28;20028;-68
2023/04/15 12:08:52;;;;;;;4.88;4.32;;;8.40;88.10;;;;;;5057417;28;20065;-69
2023/04/15 12:11:19;;;;;;;7.97;4.70;;;8.40;87.70;;;;;;5062565;28;20032;-65
2023/04/15 12:13:49;;;;;;;5.80;4.38;;;8.40;87.40;;;;;;5065004;28;20599;-69
2023/04/15 12:16:18;;;;;;;4.97;4.40;;;8.40;88.20;;;;;;5051801;28;20051;-69
2023/04/15 12:19:11;;;;;;;4.88;4.18;;;8.50;87.70;;;;;;5058599;28;20093;-68
2023/04/15 12:21:40;;;;;;;4.72;4.03;;;8.50;87.60;;;;;;5059616;28;20041;-68
2023/04/15 12:24:07;;;;;;;6.55;4.50;;;8.50;87.60;;;;;;5063686;28;20021;-68
2023/04/15 12:26:42;;;;;;;5.65;4.78;;;8.50;87.30;;;;;;5060310;28;20666;-67
2023/04/15 12:29:09;;;;;;;5.82;5.05;;;8.50;87.50;;;;;;5058564;28;20028;-65
2023/04/15 12:31:36;;;;;;;4.80;4.30;;;8.60;87.50;;;;;;5055960;28;20139;-66
2023/04/15 12:34:02;;;;;;;4.97;4.47;;;8.60;87.10;;;;;;5056047;28;20036;-69
2023/04/15 12:36:31;;;;;;;4.93;4.15;;;8.60;86.80;;;;;;5065156;28;20452;-68
2023/04/15 12:38:57;;;;;;;6.97;4.68;;;8.60;86.80;;;;;;5059675;28;20029;-69
2023/04/15 12:41:23;;;;;;;5.82;4.55;;;8.70;86.70;;;;;;5065038;28;20039;-70
2023/04/15 12:43:49;;;;;;;7.78;5.50;;;8.70;86.60;;;;;;5068603;28;20549;-65
2023/04/15 12:46:15;;;;;;;6.50;5.20;;;8.70;86.30;;;;;;5062220;28;20110;-70
2023/04/15 12:48:41;;;;;;;7.88;5.65;;;8.70;86.20;;;;;;5066996;28;20437;-70
2023/04/15 12:51:07;;;;;;;6.55;4.90;;;8.60;86.20;;;;;;5070024;28;20058;-66
2023/04/15 12:53:32;;;;;;;6.32;4.90;;;8.60;86.50;;;;;;5067450;28;20111;-68
2023/04/15 12:56:00;;;;;;;6.72;4.95;;;8.60;86.50;;;;;;5069482;28;20455;-69
2023/04/15 12:58:26;;;;;;;5.75;4.65;;;8.60;86.40;;;;;;5061189;28;20120;-70
2023/04/15 13:00:51;;;;;;;6.88;5.15;;;8.60;86.70;;;;;;5065808;28;20032;-69